Time;durP1;ratioP1;P1;durP2;ratioP2;P2;SDS_P1;SDS_P2;PMS_P1;PMS_P2;Temp;Humidity;BMP_temperature;BMP_pressure;BME280_temperature;BME280_humidity;BME280_pressure;Samples;Min_cycle;Max_cycle;Signal;HPM_P1;HPM_P2
2022/11/08 00:03:32;;;;;;;3.92;2.50;;;;;;;13.26;55.79;98593.38;5091350;28;20085;-46
2022/11/08 00:14:09;;;;;;;9.75;3.42;;;;;;;13.58;54.84;98582.66;5092225;28;20120;-46
2022/11/08 00:16:35;;;;;;;3.40;2.25;;;;;;;13.70;53.91;98575.66;5090834;28;20107;-46
2022/11/08 00:19:01;;;;;;;4.53;1.80;;;;;;;13.67;53.64;98568.16;5090758;28;20555;-46
2022/11/08 00:21:26;;;;;;;6.47;1.80;;;;;;;13.78;53.63;98575.34;5090695;28;20538;-46
2022/11/08 00:23:52;;;;;;;5.15;1.73;;;;;;;13.81;53.08;98562.72;5090646;28;20038;-46
2022/11/08 00:26:18;;;;;;;3.25;1.40;;;;;;;13.77;52.87;98568.44;5092265;28;20020;-46
2022/11/08 00:28:44;;;;;;;2.97;1.77;;;;;;;13.74;53.10;98555.72;5090652;28;20032;-46
2022/11/08 00:31:10;;;;;;;4.82;2.00;;;;;;;13.72;53.39;98560.41;5090664;28;20035;-46
2022/11/08 00:33:36;;;;;;;3.33;2.05;;;;;;;13.71;53.27;98564.06;5073836;28;20024;-46
2022/11/08 00:36:02;;;;;;;4.03;2.03;;;;;;;13.74;53.23;98563.63;5091956;28;20084;-46
2022/11/08 00:38:28;;;;;;;4.15;1.90;;;;;;;13.72;53.18;98560.41;5090171;28;20027;-46
2022/11/08 00:40:54;;;;;;;5.07;2.10;;;;;;;13.71;53.23;98558.78;5090509;28;20465;-46
2022/11/08 00:43:20;;;;;;;2.78;1.42;;;;;;;13.79;52.87;98558.47;5091891;28;20089;-46
2022/11/08 00:45:46;;;;;;;3.55;2.33;;;;;;;13.81;53.04;98560.09;5091709;28;20020;-46
2022/11/08 00:48:11;;;;;;;2.70;1.63;;;;;;;13.78;53.11;98577.16;5090524;28;20020;-46
2022/11/08 00:50:38;;;;;;;2.97;1.92;;;;;;;13.79;53.48;98555.81;5090390;28;20059;-46
2022/11/08 00:53:03;;;;;;;7.40;2.58;;;;;;;13.79;53.99;98561.09;5090433;28;20478;-46
2022/11/08 00:55:29;;;;;;;2.95;2.08;;;;;;;13.96;54.04;98552.53;5090694;28;20035;-46
2022/11/08 00:57:55;;;;;;;4.93;2.17;;;;;;;13.95;54.20;98550.94;5090378;28;20024;-46
2022/11/08 01:00:21;;;;;;;4.57;2.47;;;;;;;13.95;54.03;98543.03;5090330;28;20115;-45
2022/11/08 01:02:46;;;;;;;5.10;2.08;;;;;;;14.05;53.80;98540.66;5091589;28;20024;-46
2022/11/08 01:05:13;;;;;;;8.85;2.75;;;;;;;14.11;53.71;98547.66;5091602;28;20398;-46
2022/11/08 01:07:39;;;;;;;8.35;2.42;;;;;;;14.12;53.45;98549.25;5091563;28;20028;-46
2022/11/08 01:10:05;;;;;;;3.63;2.00;;;;;;;14.13;53.61;98553.50;5090221;28;20024;-46
2022/11/08 01:12:31;;;;;;;4.07;2.17;;;;;;;14.17;53.23;98546.75;5090530;28;20109;-46
2022/11/08 01:14:57;;;;;;;5.57;2.53;;;;;;;14.17;53.56;98552.03;5090447;28;20082;-46
2022/11/08 01:17:22;;;;;;;7.70;2.50;;;;;;;14.16;53.63;98539.84;5090059;28;20030;-46
2022/11/08 01:19:48;;;;;;;9.50;2.90;;;;;;;14.22;53.25;98535.50;5090263;28;20016;-46
2022/11/08 01:22:14;;;;;;;6.43;2.67;;;;;;;14.29;53.16;98543.34;5073035;28;20039;-46
2022/11/08 01:24:39;;;;;;;4.82;2.20;;;;;;;14.31;53.22;98542.06;5090030;28;20086;-46
2022/11/08 01:27:05;;;;;;;4.90;2.28;;;;;;;14.32;52.95;98540.22;5090088;28;20101;-46
2022/11/08 01:29:32;;;;;;;3.70;2.17;;;;;;;14.28;53.28;98536.44;5091395;28;20482;-46
2022/11/08 01:31:58;;;;;;;4.07;2.00;;;;;;;14.22;53.26;98535.50;5091359;28;20099;-46
2022/11/08 01:34:23;;;;;;;6.38;2.78;;;;;;;14.17;53.54;98535.41;5090073;28;20118;-46
2022/11/08 01:36:49;;;;;;;4.03;2.20;;;;;;;14.22;53.25;98569.81;5091269;28;20065;-46
2022/11/08 01:39:15;;;;;;;4.68;2.42;;;;;;;14.16;53.28;98539.06;5091612;28;20363;-46
2022/11/08 01:41:40;;;;;;;6.00;2.50;;;;;;;14.12;53.39;98537.91;5089915;28;20031;-46
2022/11/08 01:44:15;;;;;;;4.10;2.33;;;;;;;14.09;53.18;98541.00;5091198;28;20440;-46
2022/11/08 01:46:45;;;;;;;5.72;2.47;;;;;;;14.08;53.23;98542.81;5090266;28;20043;-46
2022/11/08 01:49:23;;;;;;;5.38;2.45;;;;;;;14.09;52.59;98551.56;5090298;28;20028;-46
2022/11/08 01:52:09;;;;;;;3.88;2.28;;;;;;;14.08;52.63;98550.75;5094739;28;20032;-46
2022/11/08 01:54:54;;;;;;;5.32;2.85;;;;;;;14.17;52.07;98543.31;5076596;28;20048;-46
2022/11/08 01:57:34;;;;;;;4.32;2.08;;;;;;;14.30;51.56;98529.09;5094760;28;20028;-46
2022/11/08 02:00:04;;;;;;;4.30;2.65;;;;;;;14.30;51.18;98545.72;5093364;28;20032;-46
2022/11/08 02:02:32;;;;;;;7.05;2.55;;;;;;;14.21;51.53;98536.56;5093338;28;20032;-46
2022/11/08 02:04:59;;;;;;;4.25;2.55;;;;;;;14.08;51.81;98545.47;5094754;28;20012;-46
2022/11/08 02:07:26;;;;;;;7.03;2.65;;;;;;;14.04;52.74;98543.50;5093178;28;20405;-46
2022/11/08 02:09:52;;;;;;;5.85;2.20;;;;;;;14.12;52.98;98548.44;5093415;28;20024;-46
2022/11/08 02:12:21;;;;;;;9.02;3.17;;;;;;;14.14;52.77;98552.47;5093108;28;20042;-46
2022/11/08 02:14:47;;;;;;;5.93;2.05;;;;;;;14.19;53.16;98555.25;5094323;28;20059;-46
2022/11/08 02:17:13;;;;;;;7.47;2.70;;;;;;;14.25;53.14;98563.31;5094335;28;20082;-46
2022/11/08 02:19:43;;;;;;;5.28;2.47;;;;;;;14.22;52.93;98559.25;5093297;28;20016;-46
2022/11/08 02:22:26;;;;;;;3.83;2.40;;;;;;;14.20;52.72;98558.69;5094334;28;20122;-46
2022/11/08 02:24:53;;;;;;;5.53;2.40;;;;;;;14.21;51.74;98567.44;5094132;28;20097;-46
2022/11/08 02:27:19;;;;;;;5.50;2.80;;;;;;;14.13;52.17;98566.72;5094083;28;20506;-46
2022/11/08 02:29:45;;;;;;;5.57;2.60;;;;;;;14.05;52.47;98553.84;5094028;28;20028;-46
2022/11/08 02:32:11;;;;;;;8.25;2.55;;;;;;;13.96;52.65;98566.56;5093967;28;20058;-46
2022/11/08 02:34:41;;;;;;;9.38;3.28;;;;;;;14.07;53.57;98567.63;5093920;28;20528;-46
2022/11/08 02:37:07;;;;;;;9.20;3.00;;;;;;;14.25;53.63;98564.09;5092602;28;20026;-46
2022/11/08 02:39:33;;;;;;;4.78;2.88;;;;;;;14.24;52.90;98559.03;5093836;28;20052;-46
2022/11/08 02:42:00;;;;;;;6.75;3.03;;;;;;;14.10;52.68;98550.50;5093715;28;20050;-46
2022/11/08 02:44:25;;;;;;;5.90;3.10;;;;;;;13.97;53.22;98546.25;5093959;28;20024;-46
2022/11/08 02:46:51;;;;;;;8.45;3.20;;;;;;;13.88;53.29;98555.50;5092678;28;20024;-46
2022/11/08 02:49:17;;;;;;;4.30;3.00;;;;;;;13.77;53.93;98551.81;5092351;28;20039;-46
2022/11/08 02:51:42;;;;;;;5.53;3.17;;;;;;;13.70;54.17;98553.72;5093675;28;20024;-46
2022/11/08 02:54:08;;;;;;;5.50;2.63;;;;;;;13.63;54.51;98548.53;5092286;28;20447;-46
2022/11/08 02:56:34;;;;;;;5.72;3.28;;;;;;;13.51;54.70;98552.97;5093478;28;20032;-46
2022/11/08 02:59:00;;;;;;;6.45;3.55;;;;;;;13.39;54.95;98553.69;5092225;28;20119;-46
2022/11/08 03:01:25;;;;;;;6.47;3.22;;;;;;;13.27;55.50;98562.56;5093079;28;20024;-46
2022/11/08 03:03:51;;;;;;;5.50;3.22;;;;;;;13.16;55.97;98556.19;5075244;28;20166;-46
2022/11/08 03:06:17;;;;;;;6.25;3.15;;;;;;;13.20;56.30;98557.38;5092358;28;20482;-46
2022/11/08 03:08:42;;;;;;;5.55;3.38;;;;;;;13.26;56.60;98560.94;5093262;28;20513;-46
2022/11/08 03:11:08;;;;;;;8.85;3.83;;;;;;;13.42;56.67;98568.28;5091942;28;20026;-46
2022/11/08 03:13:34;;;;;;;5.63;3.35;;;;;;;13.52;56.42;98559.84;5091881;28;20038;-46
2022/11/08 03:16:04;;;;;;;6.88;3.63;;;;;;;13.57;56.30;98563.41;5091806;28;20494;-46
2022/11/08 03:18:30;;;;;;;9.88;3.67;;;;;;;13.56;56.23;98564.47;5093058;28;20032;-46
2022/11/08 03:20:55;;;;;;;6.07;3.53;;;;;;;13.60;56.52;98556.88;5091743;28;20023;-46
2022/11/08 03:23:21;;;;;;;7.15;3.75;;;;;;;13.61;55.92;98563.00;5091516;28;20044;-46
2022/11/08 03:25:47;;;;;;;9.40;4.07;;;;;;;13.59;56.24;98561.38;5091522;28;20038;-46
2022/11/08 03:28:12;;;;;;;8.18;3.75;;;;;;;13.66;55.56;98560.47;5091992;28;20028;-46
2022/11/08 03:30:38;;;;;;;10.45;3.78;;;;;;;13.76;55.46;98560.72;5091832;28;20460;-46
2022/11/08 03:33:04;;;;;;;9.15;3.28;;;;;;;13.79;54.85;98555.03;5091848;28;20032;-46
2022/11/08 03:35:29;;;;;;;14.90;3.35;;;;;;;13.82;55.48;98551.94;5092845;28;20107;-46
2022/11/08 03:37:56;;;;;;;7.63;3.10;;;;;;;13.77;55.01;98565.78;5091460;28;20032;-46
2022/11/08 03:40:23;;;;;;;3.95;2.53;;;;;;;13.77;54.95;98567.63;5092698;28;20020;-46
2022/11/08 03:42:49;;;;;;;7.10;3.33;;;;;;;13.70;55.08;98564.28;5093002;28;20505;-46
2022/11/08 03:45:15;;;;;;;30.23;5.63;;;;;;;13.61;55.37;98563.78;5091243;28;20020;-46
2022/11/08 03:47:46;;;;;;;40.45;6.07;;;;;;;13.57;55.95;98555.50;5074354;28;20485;-46
2022/11/08 03:50:14;;;;;;;8.38;3.55;;;;;;;13.62;55.42;98565.38;5092512;28;20027;-46
2022/11/08 03:52:41;;;;;;;12.43;4.13;;;;;;;13.57;55.52;98567.91;5091159;28;20046;-46
2022/11/08 03:55:09;;;;;;;11.27;3.90;;;;;;;13.52;55.99;98573.00;5091108;28;20061;-46
2022/11/08 03:57:35;;;;;;;7.13;3.08;;;;;;;13.50;56.14;98577.72;5092364;28;20505;-46
2022/11/08 04:00:02;;;;;;;6.50;3.22;;;;;;;13.50;55.78;98575.06;5091362;28;20039;-46
2022/11/08 04:02:28;;;;;;;5.25;2.88;;;;;;;13.48;56.03;98588.50;5092339;28;20561;-46
2022/11/08 04:04:54;;;;;;;7.30;3.53;;;;;;;13.47;56.03;98572.88;5092249;28;20157;-46
2022/11/08 04:07:19;;;;;;;4.07;2.53;;;;;;;13.45;56.08;98583.66;5092267;28;20110;-46
2022/11/08 04:09:45;;;;;;;7.80;3.00;;;;;;;13.37;56.18;98581.31;5090902;28;20020;-46
2022/11/08 04:23:06;;;;;;;6.53;2.83;;;;;;;13.31;56.83;98596.19;5091921;28;20105;-46
2022/11/08 04:25:32;;;;;;;7.63;3.28;;;;;;;13.27;56.55;98587.06;5091903;28;20024;-46
2022/11/08 04:27:57;;;;;;;4.25;2.50;;;;;;;13.26;56.61;98597.81;5091985;28;20028;-46
2022/11/08 04:30:23;;;;;;;105.18;83.90;;;;;;;13.28;56.12;98596.59;5091923;28;20024;-46
2022/11/08 04:32:48;;;;;;;29.85;19.15;;;;;;;13.26;56.73;98596.00;5091894;28;20123;-46
2022/11/08 04:35:14;;;;;;;15.30;6.07;;;;;;;13.27;56.10;98602.09;5090528;28;20127;-46
2022/11/08 04:37:40;;;;;;;14.88;3.92;;;;;;;13.24;56.56;98610.41;5091882;28;20028;-46
2022/11/08 04:40:06;;;;;;;13.48;4.90;;;;;;;13.36;57.17;98613.97;5091811;28;20031;-46
2022/11/08 04:42:32;;;;;;;10.57;3.92;;;;;;;13.53;57.14;98620.25;5091798;28;20565;-46
2022/11/08 04:44:57;;;;;;;6.03;3.40;;;;;;;13.64;56.59;98621.34;5090717;28;20043;-46
2022/11/08 04:47:23;;;;;;;10.02;3.38;;;;;;;13.54;56.35;98624.53;5091732;28;20023;-46
2022/11/08 04:49:49;;;;;;;4.65;2.28;;;;;;;13.48;55.96;98614.03;5091793;28;20032;-46
2022/11/08 04:52:15;;;;;;;4.78;2.47;;;;;;;13.46;55.54;98616.91;5090694;28;20027;-46
2022/11/08 04:54:44;;;;;;;3.83;2.45;;;;;;;13.55;55.36;98617.41;5090502;28;20036;-46
2022/11/08 04:57:10;;;;;;;6.25;3.22;;;;;;;13.72;55.32;98621.06;5091660;28;20390;-46
2022/11/08 04:59:36;;;;;;;8.52;3.08;;;;;;;13.72;55.05;98614.97;5091661;28;20052;-46
2022/11/08 05:02:02;;;;;;;6.63;2.70;;;;;;;13.72;55.16;98612.31;5090312;28;20074;-46
2022/11/08 05:04:27;;;;;;;3.80;2.22;;;;;;;13.72;55.01;98615.78;5091783;28;20047;-46
2022/11/08 05:06:53;;;;;;;6.85;3.35;;;;;;;13.59;55.27;98623.84;5090244;28;20406;-46
2022/11/08 05:09:19;;;;;;;9.40;2.85;;;;;;;13.48;55.75;98621.94;5090531;28;20047;-46
2022/11/08 05:11:44;;;;;;;4.00;2.42;;;;;;;13.38;55.84;98622.44;5091521;28;20028;-46
2022/11/08 05:14:10;;;;;;;7.22;2.72;;;;;;;13.28;56.51;98609.78;5090250;28;20122;-46
2022/11/08 05:16:36;;;;;;;8.88;3.08;;;;;;;13.34;56.98;98608.94;5091489;28;20020;-46
2022/11/08 05:19:02;;;;;;;3.20;1.75;;;;;;;13.45;55.95;98598.66;5091553;28;20032;-46
2022/11/08 05:24:15;;;;;;;7.65;3.20;;;;;;;13.55;55.65;98585.78;5092813;28;20035;-46
2022/11/08 05:26:43;;;;;;;5.95;3.22;;;;;;;13.34;56.30;98585.22;5095617;28;20107;-46
2022/11/08 05:29:09;;;;;;;3.35;1.83;;;;;;;13.25;55.92;98573.31;5093996;28;20065;-46
2022/11/08 05:31:35;;;;;;;3.67;2.10;;;;;;;13.29;56.49;98565.78;5077249;28;20105;-46
2022/11/08 05:34:00;;;;;;;6.80;2.03;;;;;;;13.38;56.19;98552.09;5093897;28;20073;-46
2022/11/08 05:36:27;;;;;;;6.28;1.98;;;;;;;13.41;55.50;98558.75;5093790;28;20038;-46
2022/11/08 05:38:54;;;;;;;4.68;1.70;;;;;;;13.39;55.29;98556.34;5095159;28;20509;-46
2022/11/08 05:41:22;;;;;;;4.38;1.60;;;;;;;13.47;54.92;98564.97;5093683;28;20046;-46
2022/11/08 05:43:50;;;;;;;3.65;1.83;;;;;;;13.51;54.76;98560.88;5093984;28;20028;-46
2022/11/08 05:46:17;;;;;;;3.80;1.50;;;;;;;13.55;54.70;98576.03;5093561;28;20035;-46
2022/11/08 05:48:45;;;;;;;5.97;1.50;;;;;;;13.57;54.50;98578.44;5094872;28;20028;-46
2022/11/08 05:51:12;;;;;;;2.47;1.45;;;;;;;13.57;54.50;98573.16;5094863;28;20477;-46
2022/11/08 05:53:38;;;;;;;2.42;1.40;;;;;;;13.68;54.20;98576.88;5093525;28;20024;-46
2022/11/08 05:56:04;;;;;;;7.47;1.80;;;;;;;13.82;53.67;98570.38;5093736;28;20566;-46
2022/11/08 05:58:32;;;;;;;2.97;1.95;;;;;;;13.83;53.20;98561.47;5093671;28;20028;-46
2022/11/08 06:00:59;;;;;;;7.03;2.10;;;;;;;13.73;53.92;98569.13;5094675;28;20095;-46
2022/11/08 06:03:25;;;;;;;11.98;1.90;;;;;;;13.92;54.55;98575.13;5093613;28;20024;-46
2022/11/08 06:05:51;;;;;;;3.50;1.55;;;;;;;14.00;53.28;98566.91;5094496;28;20386;-46
2022/11/08 06:08:16;;;;;;;8.05;2.40;;;;;;;13.93;53.08;98568.84;5094549;28;20116;-46
2022/11/08 06:10:42;;;;;;;5.18;2.38;;;;;;;13.91;53.05;98568.25;5093392;28;20032;-46
2022/11/08 06:13:08;;;;;;;5.97;1.50;;;;;;;13.90;52.73;98561.34;5094388;28;20016;-46
2022/11/08 06:15:33;;;;;;;7.22;1.77;;;;;;;14.03;52.01;98561.19;5093047;28;20110;-46
2022/11/08 06:18:03;;;;;;;3.95;1.20;;;;;;;14.14;52.25;98570.94;5094318;28;20031;-46
2022/11/08 06:20:29;;;;;;;7.00;1.60;;;;;;;14.31;50.86;98572.94;5093264;28;20069;-46
2022/11/08 06:22:55;;;;;;;10.27;2.10;;;;;;;14.37;50.53;98569.41;5092684;28;20210;-46
2022/11/08 06:25:21;;;;;;;3.03;1.90;;;;;;;14.39;50.58;98564.69;5093085;28;20119;-46
2022/11/08 06:27:47;;;;;;;5.53;1.70;;;;;;;14.31;50.71;98565.81;5094129;28;20024;-46
2022/11/08 06:30:14;;;;;;;2.33;1.33;;;;;;;14.29;50.73;98559.97;5094013;28;20409;-46
2022/11/08 06:32:40;;;;;;;3.75;1.48;;;;;;;14.27;50.89;98569.16;5094069;28;20084;-46
2022/11/08 06:35:06;;;;;;;6.55;1.35;;;;;;;14.28;50.48;98573.38;5075555;28;20428;-46
2022/11/08 06:37:32;;;;;;;2.13;1.10;;;;;;;14.45;48.86;98579.63;5093598;28;20026;-46
2022/11/08 06:39:58;;;;;;;2.17;1.27;;;;;;;14.58;48.13;98576.78;5093865;28;20024;-46
2022/11/08 06:42:24;;;;;;;1.98;1.08;;;;;;;14.67;47.61;98573.78;5093791;28;20383;-46
2022/11/08 06:44:50;;;;;;;3.40;1.20;;;;;;;14.78;47.33;98583.56;5092417;28;20509;-46
2022/11/08 06:47:16;;;;;;;8.35;1.65;;;;;;;14.88;47.03;98585.63;5092671;28;20109;-46
2022/11/08 06:49:41;;;;;;;5.10;1.08;;;;;;;14.93;47.07;98591.03;5092671;28;20036;-46
2022/11/08 06:52:08;;;;;;;3.00;1.20;;;;;;;15.04;46.09;98586.78;5093672;28;20042;-46
2022/11/08 06:54:33;;;;;;;2.10;1.20;;;;;;;15.19;45.90;98600.31;5092295;28;20024;-46
2022/11/08 06:57:00;;;;;;;4.68;1.30;;;;;;;15.35;44.84;98596.97;5092367;28;20024;-46
2022/11/08 06:59:27;;;;;;;2.65;1.20;;;;;;;15.71;44.57;98600.28;5093753;28;20131;-46
2022/11/08 07:01:53;;;;;;;2.72;1.20;;;;;;;16.33;43.60;98593.47;5092119;28;20038;-46
2022/11/08 07:04:20;;;;;;;2.03;1.35;;;;;;;17.02;41.81;98597.72;5092345;28;20032;-46
2022/11/08 07:06:45;;;;;;;4.38;1.30;;;;;;;17.67;40.49;98606.75;5093366;28;20077;-46
2022/11/08 07:09:11;;;;;;;3.33;1.33;;;;;;;17.47;40.00;98608.13;5093260;28;20027;-46
2022/11/08 07:11:37;;;;;;;4.00;1.25;;;;;;;17.24;40.58;98613.66;5093292;28;20085;-46
2022/11/08 07:14:03;;;;;;;8.57;1.67;;;;;;;17.26;41.39;98611.56;5093246;28;20024;-47
2022/11/08 07:16:29;;;;;;;4.50;1.15;;;;;;;17.31;40.70;98607.13;5091876;28;20412;-46
2022/11/08 07:18:55;;;;;;;6.47;1.27;;;;;;;17.31;41.23;98612.44;5091921;28;20136;-46
2022/11/08 07:21:21;;;;;;;3.47;1.38;;;;;;;17.52;40.10;98610.03;5091550;28;20048;-46
2022/11/08 07:23:47;;;;;;;2.40;1.33;;;;;;;17.67;39.78;98609.41;5092125;28;20059;-46
2022/11/08 07:26:13;;;;;;;4.30;1.23;;;;;;;17.89;39.05;98622.69;5091750;28;20031;-46
2022/11/08 07:28:40;;;;;;;5.57;1.30;;;;;;;18.53;37.96;98625.41;5091670;28;20387;-44
2022/11/08 07:31:07;;;;;;;2.85;1.10;;;;;;;19.15;36.97;98625.84;5091630;28;20405;-44
2022/11/08 07:33:33;;;;;;;5.63;1.70;;;;;;;19.87;36.06;98632.31;5092917;28;20042;-44
2022/11/08 07:35:59;;;;;;;3.15;1.10;;;;;;;20.85;35.08;98627.09;5092814;28;20153;-44
2022/11/08 07:38:25;;;;;;;2.63;1.33;;;;;;;21.60;34.42;98624.47;5091746;28;20123;-44
2022/11/08 07:40:58;;;;;;;5.45;1.27;;;;;;;21.69;33.79;98628.19;5092755;28;20453;-44
2022/11/08 07:43:25;;;;;;;6.85;2.20;;;;;;;21.45;34.86;98635.22;5091677;28;20500;-44
2022/11/08 07:45:59;;;;;;;7.60;2.55;;;;;;;20.72;36.87;98633.75;5091252;28;20035;-44
2022/11/08 07:48:26;;;;;;;11.25;2.50;;;;;;;19.96;38.42;98643.25;5091803;28;20761;-44
2022/11/08 07:50:52;;;;;;;7.80;2.15;;;;;;;19.62;38.74;98632.19;5092557;28;20099;-44
2022/11/08 07:53:18;;;;;;;4.28;1.42;;;;;;;19.44;37.73;98639.59;5091528;28;20533;-44
2022/11/08 07:55:45;;;;;;;6.60;1.70;;;;;;;18.98;37.70;98638.53;5091168;28;20081;-44
2022/11/08 07:58:11;;;;;;;5.45;1.70;;;;;;;18.65;38.69;98643.03;5092451;28;20170;-44
2022/11/08 08:00:39;;;;;;;5.15;1.30;;;;;;;18.51;39.13;98642.66;5092405;28;20074;-44
2022/11/08 08:03:07;;;;;;;3.80;1.60;;;;;;;18.49;39.26;98645.59;5092356;28;20024;-44
2022/11/08 08:05:36;;;;;;;5.07;1.70;;;;;;;18.33;39.39;98659.75;5092157;28;20073;-44
2022/11/08 08:08:02;;;;;;;4.80;1.90;;;;;;;18.09;39.58;98657.44;5092312;28;20092;-44
2022/11/08 08:10:29;;;;;;;6.90;1.40;;;;;;;17.86;39.87;98660.34;5091267;28;20024;-44
2022/11/08 08:12:55;;;;;;;6.35;1.77;;;;;;;17.56;40.63;98665.00;5092168;28;20020;-44
2022/11/08 08:15:21;;;;;;;9.55;1.88;;;;;;;17.43;40.57;98660.06;5091055;28;20114;-44
2022/11/08 08:17:46;;;;;;;7.82;2.33;;;;;;;17.32;41.02;98667.06;5090811;28;20051;-44
2022/11/08 08:20:13;;;;;;;13.40;2.75;;;;;;;17.30;42.49;98671.03;5092046;28;20136;-44
2022/11/08 08:22:45;;;;;;;7.25;2.38;;;;;;;17.39;42.22;98668.78;5073735;28;20197;-44
2022/11/08 08:25:11;;;;;;;6.35;1.75;;;;;;;17.66;42.03;98664.34;5091893;28;20020;-44
2022/11/08 08:27:37;;;;;;;24.92;3.90;;;;;;;17.96;43.03;98663.91;5090755;28;20085;-44
2022/11/08 08:30:04;;;;;;;8.68;2.53;;;;;;;18.49;42.22;98655.38;5091993;28;20720;-44
2022/11/08 08:32:29;;;;;;;7.07;2.38;;;;;;;18.68;41.05;98659.28;5091954;28;20028;-44
2022/11/08 08:34:55;;;;;;;4.28;2.08;;;;;;;19.27;39.56;98665.56;5090933;28;20512;-44
2022/11/08 08:37:21;;;;;;;16.17;3.53;;;;;;;20.17;40.36;98664.63;5090588;28;20113;-44
2022/11/08 08:39:47;;;;;;;11.43;3.05;;;;;;;21.80;36.86;98660.19;5091876;28;20509;-44
2022/11/08 08:42:12;;;;;;;8.27;2.60;;;;;;;22.40;35.45;98652.13;5091774;28;20024;-44
2022/11/08 08:44:38;;;;;;;6.90;2.70;;;;;;;22.34;35.59;98654.03;5091732;28;20027;-44
2022/11/08 08:47:04;;;;;;;11.10;2.80;;;;;;;22.57;35.61;98657.06;5091778;28;20028;-44
2022/11/08 08:49:30;;;;;;;5.93;2.10;;;;;;;22.96;34.26;98650.84;5090770;28;20016;-45
2022/11/08 08:51:56;;;;;;;6.75;2.42;;;;;;;23.37;34.28;98655.81;5090451;28;20089;-45
2022/11/08 08:54:21;;;;;;;14.18;3.20;;;;;;;24.52;33.14;98648.38;5090336;28;20059;-44
2022/11/08 08:56:47;;;;;;;4.95;2.20;;;;;;;25.01;31.80;98651.63;5090389;28;20055;-45
2022/11/08 08:59:13;;;;;;;7.43;2.20;;;;;;;25.02;31.21;98655.09;5093196;28;20020;-45
2022/11/08 09:01:39;;;;;;;10.63;2.20;;;;;;;24.57;30.33;98660.13;5095796;28;20020;-44
2022/11/08 09:04:05;;;;;;;9.40;1.88;;;;;;;23.93;31.34;98665.88;5095715;28;20108;-44
2022/11/08 09:06:31;;;;;;;2.60;1.50;;;;;;;24.02;31.07;98664.13;5095770;28;20024;-45
2022/11/08 09:08:57;;;;;;;9.88;2.70;;;;;;;23.95;32.74;98665.59;5095714;28;20477;-45
2022/11/08 09:11:23;;;;;;;9.90;3.10;;;;;;;23.28;34.26;98669.81;5095625;28;20020;-44
2022/11/08 09:13:48;;;;;;;7.00;2.95;;;;;;;23.45;35.11;98674.72;5095648;28;20043;-45
2022/11/08 09:16:14;;;;;;;8.45;2.70;;;;;;;24.85;33.17;98666.38;5095505;28;20100;-45
2022/11/08 09:18:40;;;;;;;6.38;2.67;;;;;;;25.95;31.66;98651.41;5096124;28;20027;-44
2022/11/08 09:21:06;;;;;;;14.68;3.30;;;;;;;26.88;30.20;98648.97;5094094;28;20028;-45
2022/11/08 09:23:32;;;;;;;2.85;1.98;;;;;;;28.02;27.85;98643.94;5095717;28;20043;-45
2022/11/08 09:25:59;;;;;;;4.03;2.20;;;;;;;28.65;26.36;98649.78;5093929;28;20519;-45
2022/11/08 09:28:26;;;;;;;17.33;2.85;;;;;;;27.89;26.91;98640.31;5093983;28;20067;-45
2022/11/08 09:30:52;;;;;;;2.50;1.60;;;;;;;27.77;26.18;98646.28;5093932;28;20031;-45
2022/11/08 09:33:17;;;;;;;3.38;1.52;;;;;;;27.22;25.68;98639.44;5095178;28;20024;-45
2022/11/08 09:35:45;;;;;;;7.47;1.88;;;;;;;26.55;26.75;98642.25;5093869;28;20394;-44
2022/11/08 09:38:11;;;;;;;4.00;1.58;;;;;;;25.83;26.98;98644.63;5095081;28;20089;-45
2022/11/08 09:40:44;;;;;;;2.65;1.50;;;;;;;24.52;28.76;98651.06;5093864;28;20032;-45
2022/11/08 09:43:36;;;;;;;6.67;1.90;;;;;;;23.21;30.82;98649.81;5093797;28;20024;-45
2022/11/08 09:46:02;;;;;;;2.47;1.55;;;;;;;22.28;32.33;98649.81;5094863;28;20035;-44
2022/11/08 09:48:30;;;;;;;4.55;1.58;;;;;;;21.45;33.49;98649.38;5094974;28;20020;-44
2022/11/08 09:50:58;;;;;;;5.15;1.70;;;;;;;21.00;34.65;98652.94;5093538;28;20059;-44
2022/11/08 09:53:49;;;;;;;4.55;1.50;;;;;;;21.37;35.13;98655.25;5093540;28;20020;-44
2022/11/08 09:56:22;;;;;;;2.42;1.38;;;;;;;22.58;32.97;98656.78;5094779;28;20024;-44
2022/11/08 09:58:53;;;;;;;4.65;1.83;;;;;;;23.43;32.03;98657.34;5094803;28;20111;-45
2022/11/08 10:01:21;;;;;;;4.93;1.67;;;;;;;23.28;31.61;98653.75;5094917;28;20028;-44
2022/11/08 10:03:55;;;;;;;2.78;1.30;;;;;;;23.18;32.28;98645.84;5094641;28;20098;-44
2022/11/08 10:07:02;;;;;;;2.90;1.60;;;;;;;24.16;31.63;98647.31;5094543;28;20028;-44
2022/11/08 10:09:58;;;;;;;4.95;1.88;;;;;;;25.42;30.33;98650.06;5093298;28;20086;-45
2022/11/08 10:12:49;;;;;;;2.95;1.20;;;;;;;24.97;29.60;98644.44;5094043;28;20048;-45
2022/11/08 10:15:33;;;;;;;4.25;1.50;;;;;;;23.81;30.85;98636.03;5094404;28;20039;-45
2022/11/08 10:18:32;;;;;;;4.43;1.95;;;;;;;23.41;32.04;98630.84;5093041;28;20031;-45
2022/11/08 10:21:44;;;;;;;5.45;1.73;;;;;;;23.83;31.64;98631.97;5093299;28;20107;-45
2022/11/08 10:24:13;;;;;;;5.05;1.70;;;;;;;23.75;31.44;98619.19;5094319;28;20043;-45
2022/11/08 10:26:41;;;;;;;3.42;2.22;;;;;;;23.87;31.49;98624.94;5094290;28;20020;-45
2022/11/08 10:29:34;;;;;;;6.75;1.65;;;;;;;23.62;31.47;98614.50;5094263;28;20107;-45
2022/11/08 10:32:20;;;;;;;3.63;1.10;;;;;;;23.43;31.88;98609.13;5082649;28;20035;-45
2022/11/08 10:35:07;;;;;;;2.85;1.20;;;;;;;23.95;31.88;98609.31;5094189;28;20551;-45
2022/11/08 10:37:33;;;;;;;2.63;1.35;;;;;;;23.92;31.16;98605.28;5094090;28;20494;-45
2022/11/08 10:40:35;;;;;;;2.10;1.10;;;;;;;23.60;31.77;98604.06;5092548;28;20406;-45
2022/11/08 10:43:18;;;;;;;8.15;1.48;;;;;;;22.65;32.88;98602.97;5086232;28;20051;-45
2022/11/08 10:45:43;;;;;;;8.55;1.30;;;;;;;21.93;34.30;98600.78;5093856;28;20024;-45
2022/11/08 10:48:10;;;;;;;12.95;1.70;;;;;;;21.33;35.52;98603.47;5093743;28;20514;-45
2022/11/08 10:50:44;;;;;;;7.10;1.50;;;;;;;20.83;36.60;98603.34;5093927;28;20496;-45
2022/11/08 10:53:26;;;;;;;8.88;2.00;;;;;;;20.69;37.15;98596.97;5092376;28;20028;-45
2022/11/08 10:56:04;;;;;;;16.65;1.98;;;;;;;20.64;37.42;98584.41;5092581;28;20028;-45
2022/11/08 10:58:41;;;;;;;4.85;1.50;;;;;;;20.70;37.42;98595.88;5093646;28;20447;-44
2022/11/08 11:01:09;;;;;;;4.32;1.50;;;;;;;20.80;37.18;98598.53;5092222;28;20028;-45
2022/11/08 11:03:35;;;;;;;4.97;1.35;;;;;;;20.98;37.10;98599.03;5092197;28;20085;-45
2022/11/08 11:06:03;;;;;;;2.53;1.40;;;;;;;21.68;36.39;98589.19;5093403;28;20107;-45
2022/11/08 11:08:31;;;;;;;3.42;1.60;;;;;;;22.32;35.23;98582.13;5093435;28;20393;-45
2022/11/08 11:11:34;;;;;;;2.50;1.52;;;;;;;22.49;35.00;98591.59;5092308;28;20501;-45
2022/11/08 11:14:11;;;;;;;4.95;1.63;;;;;;;22.16;36.06;98583.28;5091328;28;20028;-45
2022/11/08 11:16:45;;;;;;;3.58;1.48;;;;;;;21.80;35.67;98580.06;5093186;28;20416;-45
2022/11/08 11:19:14;;;;;;;3.47;0.95;;;;;;;21.45;36.39;98571.13;5093283;28;20545;-45
2022/11/08 11:21:42;;;;;;;3.03;1.10;;;;;;;21.13;36.46;98583.78;5091589;28;20409;-45
2022/11/08 11:24:11;;;;;;;6.38;1.23;;;;;;;20.82;36.97;98571.59;5091607;28;20028;-45
2022/11/08 11:26:47;;;;;;;4.25;1.25;;;;;;;20.52;37.59;98594.53;5091728;28;20051;-44
2022/11/08 11:29:32;;;;;;;1.95;1.13;;;;;;;20.24;38.39;98594.03;5091749;28;20102;-45
2022/11/08 11:32:31;;;;;;;4.38;1.63;;;;;;;20.42;39.04;98568.66;5091559;28;20024;-44
2022/11/08 11:35:00;;;;;;;5.05;1.50;;;;;;;21.46;37.50;98567.41;5093169;28;20448;-45
2022/11/08 11:37:55;;;;;;;6.80;1.50;;;;;;;22.37;35.81;98554.53;5092862;28;20026;-45
2022/11/08 11:40:38;;;;;;;4.28;1.58;;;;;;;23.00;35.11;98556.31;5092866;28;20039;-45
2022/11/08 11:43:13;;;;;;;3.38;1.35;;;;;;;23.55;33.87;98552.47;5091446;28;20043;-45
2022/11/08 11:45:49;;;;;;;5.88;1.40;;;;;;;23.53;33.89;98550.06;5092642;28;20032;-45
2022/11/08 11:48:25;;;;;;;3.28;1.08;;;;;;;23.45;33.93;98548.84;5092707;28;20067;-45
2022/11/08 11:50:50;;;;;;;3.70;1.60;;;;;;;23.54;33.74;98535.59;5091658;28;20072;-45
2022/11/08 11:53:18;;;;;;;5.55;1.80;;;;;;;23.27;33.94;98536.22;5091189;28;20024;-45
2022/11/08 11:56:19;;;;;;;6.68;1.50;;;;;;;23.50;33.75;98542.59;5092455;28;20028;-45
2022/11/08 11:59:09;;;;;;;4.05;1.25;;;;;;;23.39;33.74;98543.84;5091138;28;20032;-45
2022/11/08 12:01:44;;;;;;;3.85;1.20;;;;;;;23.20;33.91;98544.63;5091074;28;20039;-45
2022/11/08 12:04:45;;;;;;;4.57;1.70;;;;;;;23.02;34.74;98531.97;5091002;28;20486;-45